Time;durP1;ratioP1;P1;durP2;ratioP2;P2;SDS_P1;SDS_P2;PMS_P1;PMS_P2;Temp;Humidity;BMP_temperature;BMP_pressure;BME280_temperature;BME280_humidity;BME280_pressure;Samples;Min_cycle;Max_cycle;Signal;HPM_P1;HPM_P2
2021/06/03 00:02:17;;;;;;;6.82;3.45;;;;;;;5.47;100.00;102929.72;2573939;55;20121;-74
2021/06/03 00:04:45;;;;;;;6.62;3.92;;;;;;;5.41;100.00;102930.69;2578798;55;20169;-74
2021/06/03 00:07:14;;;;;;;5.68;4.10;;;;;;;5.39;100.00;102931.63;2578746;55;20535;-76
2021/06/03 00:09:42;;;;;;;7.50;4.82;;;;;;;5.38;100.00;102936.03;2578826;55;20542;-76
2021/06/03 00:12:10;;;;;;;7.15;4.00;;;;;;;5.38;100.00;102941.31;2578795;55;20135;-75
2021/06/03 00:14:38;;;;;;;6.62;3.87;;;;;;;5.39;100.00;102934.25;2578762;55;20121;-74
2021/06/03 00:17:06;;;;;;;6.30;3.90;;;;;;;5.37;100.00;102944.87;2578856;55;20105;-74
2021/06/03 00:19:35;;;;;;;5.30;3.97;;;;;;;5.37;100.00;102933.44;2578829;55;20158;-76
2021/06/03 00:22:03;;;;;;;5.72;3.37;;;;;;;5.34;100.00;102941.41;2578747;55;20122;-77
2021/06/03 00:24:30;;;;;;;5.82;4.15;;;;;;;5.31;100.00;102945.00;2578851;55;20113;-74
2021/06/03 00:27:04;;;;;;;4.87;4.12;;;;;;;5.25;100.00;102939.78;2573734;55;20128;-74
2021/06/03 00:29:31;;;;;;;6.18;3.87;;;;;;;5.24;100.00;102944.19;2578868;55;20119;-76
2021/06/03 00:31:59;;;;;;;4.55;3.67;;;;;;;5.23;100.00;102942.47;2578694;55;20181;-75
2021/06/03 00:34:26;;;;;;;5.90;3.75;;;;;;;5.22;100.00;102942.50;2578748;55;20623;-76
2021/06/03 00:36:55;;;;;;;6.37;4.03;;;;;;;5.20;100.00;102937.22;2578746;55;20109;-76
2021/06/03 00:39:23;;;;;;;5.53;3.83;;;;;;;5.20;100.00;102944.28;2579069;55;20105;-74
2021/06/03 00:41:50;;;;;;;6.22;4.20;;;;;;;5.22;100.00;102955.75;2578639;55;20131;-74
2021/06/03 00:44:18;;;;;;;6.78;3.80;;;;;;;5.19;100.00;102950.47;2578800;55;20560;-77
2021/06/03 00:46:45;;;;;;;7.15;4.03;;;;;;;5.18;100.00;102954.03;2578999;55;20117;-77
2021/06/03 00:49:13;;;;;;;5.25;4.00;;;;;;;5.19;100.00;102950.47;2578838;55;20157;-77
2021/06/03 00:51:40;;;;;;;7.85;3.85;;;;;;;5.18;100.00;102954.03;2578844;55;20130;-77
2021/06/03 00:54:10;;;;;;;4.40;3.78;;;;;;;5.17;100.00;102949.63;2578441;55;20120;-74
2021/06/03 00:56:37;;;;;;;6.93;3.50;;;;;;;5.13;100.00;102952.34;2578661;55;20496;-74
2021/06/03 00:59:05;;;;;;;5.15;3.35;;;;;;;5.09;100.00;102947.97;2578418;55;20121;-76
2021/06/03 01:01:34;;;;;;;6.28;3.60;;;;;;;5.13;100.00;102946.16;2578746;55;20622;-75
2021/06/03 01:04:01;;;;;;;6.97;3.50;;;;;;;5.13;100.00;102941.75;2578575;55;20117;-77
2021/06/03 01:06:30;;;;;;;6.43;3.53;;;;;;;5.14;100.00;102948.78;2578876;55;20123;-74
2021/06/03 01:09:03;;;;;;;6.00;3.45;;;;;;;5.20;100.00;102962.81;2578714;55;20109;-77
2021/06/03 01:11:36;;;;;;;5.18;3.70;;;;;;;5.22;100.00;102961.03;2578948;55;20618;-76
2021/06/03 01:14:07;;;;;;;6.47;3.47;;;;;;;5.20;100.00;102952.22;2578712;55;20140;-74
2021/06/03 01:16:36;;;;;;;6.12;3.78;;;;;;;5.27;100.00;102957.41;2578723;55;20117;-74
2021/06/03 01:19:08;;;;;;;5.65;3.20;;;;;;;5.33;100.00;102956.44;2578684;55;20109;-74
2021/06/03 01:21:44;;;;;;;6.80;3.55;;;;;;;5.59;100.00;102955.06;2578799;55;20503;-77
2021/06/03 01:24:21;;;;;;;4.00;3.28;;;;;;;6.06;100.00;102959.53;2578707;55;20570;-74
2021/06/03 01:26:50;;;;;;;6.57;3.65;;;;;;;6.54;100.00;102964.69;2578704;55;20106;-77
2021/06/03 01:29:19;;;;;;;5.72;3.08;;;;;;;7.04;100.00;102950.28;2578819;55;20117;-74
2021/06/03 01:31:48;;;;;;;3.97;3.08;;;;;;;7.43;97.61;102961.75;2578682;55;20110;-74
2021/06/03 01:34:19;;;;;;;4.35;3.53;;;;;;;8.07;94.94;102971.50;2578659;55;20106;-74
2021/06/03 01:36:49;;;;;;;5.90;3.22;;;;;;;8.68;91.50;102965.31;2578580;55;20136;-74
2021/06/03 01:39:18;;;;;;;5.43;3.22;;;;;;;8.93;88.78;102969.88;2578590;55;20105;-77
2021/06/03 01:41:46;;;;;;;6.60;3.25;;;;;;;8.94;87.78;102966.28;2578441;55;20113;-74
2021/06/03 01:44:15;;;;;;;5.05;2.60;;;;;;;9.01;87.35;102975.78;2578599;55;20127;-77
2021/06/03 01:46:42;;;;;;;5.87;3.40;;;;;;;8.93;87.84;102975.19;2573504;55;20121;-74
2021/06/03 01:49:10;;;;;;;3.58;2.90;;;;;;;8.93;89.53;102975.19;2578683;55;20117;-77
2021/06/03 01:51:38;;;;;;;3.62;2.65;;;;;;;8.99;91.19;102974.97;2578528;55;20132;-74
2021/06/03 01:54:05;;;;;;;4.47;3.33;;;;;;;8.93;90.45;102968.97;2578478;55;20117;-77
2021/06/03 01:56:36;;;;;;;5.85;3.00;;;;;;;8.80;90.90;102966.72;2578597;55;20109;-76
2021/06/03 01:59:05;;;;;;;4.53;3.15;;;;;;;8.62;91.47;102976.16;2578666;55;20603;-77
2021/06/03 02:01:32;;;;;;;3.53;2.65;;;;;;;8.52;92.77;102980.88;2578452;55;20131;-74
2021/06/03 02:04:00;;;;;;;4.53;3.15;;;;;;;8.47;92.70;102983.63;2578423;55;20120;-77
2021/06/03 02:06:27;;;;;;;4.47;3.35;;;;;;;8.53;93.34;102981.75;2578688;55;20620;-76
2021/06/03 02:08:55;;;;;;;4.10;2.92;;;;;;;8.86;92.91;102987.81;2578464;55;20102;-74
2021/06/03 02:11:23;;;;;;;5.72;2.70;;;;;;;9.39;89.81;102982.56;2578403;55;20648;-74
2021/06/03 02:13:57;;;;;;;5.25;2.75;;;;;;;9.76;89.58;102991.94;2578536;55;20122;-76
2021/06/03 02:16:30;;;;;;;5.22;3.03;;;;;;;9.84;88.89;102995.22;2578368;55;20135;-74
2021/06/03 02:19:01;;;;;;;7.93;3.47;;;;;;;9.96;89.28;103001.88;2578432;55;20117;-74
2021/06/03 02:21:31;;;;;;;8.50;2.95;;;;;;;9.86;89.69;102997.81;2578770;55;20154;-73
2021/06/03 02:24:01;;;;;;;11.38;3.40;;;;;;;9.79;90.11;103004.31;2578355;55;20735;-74
2021/06/03 02:26:29;;;;;;;19.12;3.92;;;;;;;9.78;91.13;103006.09;2578412;55;20114;-74
2021/06/03 02:29:02;;;;;;;14.32;3.53;;;;;;;9.69;90.98;103007.31;2578392;55;20136;-75
2021/06/03 02:31:31;;;;;;;10.73;3.50;;;;;;;9.65;91.72;102999.47;2578568;55;20114;-74
2021/06/03 02:33:59;;;;;;;7.85;2.92;;;;;;;9.71;92.50;103004.56;2578335;55;20104;-74
2021/06/03 02:36:27;;;;;;;7.30;3.10;;;;;;;9.75;91.79;102996.41;2578369;55;20492;-76
2021/06/03 02:38:55;;;;;;;5.82;2.97;;;;;;;10.02;91.91;103008.78;2578333;55;21007;-74
2021/06/03 02:41:24;;;;;;;6.20;3.00;;;;;;;10.08;91.47;103018.41;2578345;55;20659;-75
2021/06/03 02:43:52;;;;;;;4.87;2.70;;;;;;;10.10;92.36;103014.72;2578502;55;20127;-73
2021/06/03 02:46:23;;;;;;;4.53;3.20;;;;;;;10.25;92.77;103015.09;2578360;55;20127;-75
2021/06/03 02:48:52;;;;;;;6.43;2.55;;;;;;;10.35;91.16;103019.16;2578423;55;20118;-75
2021/06/03 02:51:20;;;;;;;5.10;2.78;;;;;;;10.51;91.35;103015.94;2578369;55;20124;-73
2021/06/03 02:53:48;;;;;;;4.60;2.35;;;;;;;10.70;91.03;103022.31;2578569;55;20109;-75
2021/06/03 02:56:17;;;;;;;4.47;3.30;;;;;;;10.92;90.50;103013.47;2578188;55;20113;-75
2021/06/03 02:58:46;;;;;;;6.80;2.67;;;;;;;11.09;90.42;103019.91;2578165;55;20124;-73
2021/06/03 03:01:14;;;;;;;3.12;2.30;;;;;;;11.30;89.70;103014.62;2578248;55;20397;-73
2021/06/03 03:03:44;;;;;;;4.43;2.62;;;;;;;11.50;90.22;103022.66;2578164;55;20125;-76
2021/06/03 03:06:13;;;;;;;4.12;2.47;;;;;;;11.78;86.59;103021.47;2578214;55;20168;-73
2021/06/03 03:08:42;;;;;;;4.03;2.67;;;;;;;12.05;84.92;103026.59;2578208;55;20118;-73
2021/06/03 03:11:10;;;;;;;3.40;2.30;;;;;;;12.30;83.90;103022.78;2578427;55;20113;-75
2021/06/03 03:13:39;;;;;;;3.42;2.15;;;;;;;12.57;83.28;103035.84;2578263;55;20127;-73
2021/06/03 03:16:07;;;;;;;3.53;2.03;;;;;;;12.71;80.76;103031.62;2578378;55;20117;-75
2021/06/03 03:18:35;;;;;;;9.40;2.40;;;;;;;12.79;79.33;103030.34;2578126;55;20109;-75
2021/06/03 03:21:05;;;;;;;5.68;2.12;;;;;;;12.84;82.04;103031.91;2578289;55;20109;-75
2021/06/03 03:23:33;;;;;;;6.97;2.58;;;;;;;12.85;80.70;103039.91;2578745;55;20675;-73
2021/06/03 03:26:01;;;;;;;4.30;2.03;;;;;;;12.90;82.19;103037.84;2579227;55;20522;-75
2021/06/03 03:28:29;;;;;;;6.03;2.42;;;;;;;13.01;80.93;103039.13;2579063;55;20178;-73
2021/06/03 03:30:57;;;;;;;6.45;2.75;;;;;;;13.21;81.97;103041.69;2578914;55;20629;-73
2021/06/03 03:33:26;;;;;;;3.03;2.05;;;;;;;13.29;77.80;103043.13;2578836;55;20165;-75
2021/06/03 03:35:54;;;;;;;5.68;2.30;;;;;;;13.43;77.59;103037.97;2578923;55;20118;-73
2021/06/03 03:38:23;;;;;;;4.12;2.15;;;;;;;13.55;80.23;103041.00;2578917;55;20157;-74
2021/06/03 03:40:53;;;;;;;3.85;2.30;;;;;;;13.66;79.11;103018.97;2578937;55;20131;-73
2021/06/03 03:43:21;;;;;;;2.40;2.10;;;;;;;13.95;78.13;103036.25;2578909;55;20114;-74
2021/06/03 03:45:48;;;;;;;2.20;1.92;;;;;;;14.08;77.81;103035.59;2579362;55;20117;-75
2021/06/03 03:48:16;;;;;;;5.45;2.25;;;;;;;14.23;76.37;103036.59;2579012;55;20643;-74
2021/06/03 03:50:45;;;;;;;5.70;2.05;;;;;;;14.29;79.41;103042.50;2578876;55;20631;-73
2021/06/03 03:53:13;;;;;;;4.70;2.15;;;;;;;14.49;78.47;103050.44;2578770;55;20212;-74
2021/06/03 03:55:43;;;;;;;3.90;2.03;;;;;;;14.69;76.77;103057.37;2578965;55;20149;-75
2021/06/03 03:58:11;;;;;;;3.65;2.15;;;;;;;14.68;74.69;103044.88;2578894;55;20596;-74
2021/06/03 04:00:38;;;;;;;3.58;1.73;;;;;;;14.75;73.19;103059.75;2578951;55;20176;-74
2021/06/03 04:03:09;;;;;;;4.57;2.17;;;;;;;14.79;76.01;103060.44;2578662;55;20162;-75
2021/06/03 04:05:37;;;;;;;2.62;2.00;;;;;;;14.81;74.48;103062.06;2578791;55;20106;-75
2021/06/03 04:08:06;;;;;;;5.28;2.62;;;;;;;14.84;73.10;103059.25;2578811;55;20135;-75
2021/06/03 04:10:34;;;;;;;5.15;1.90;;;;;;;15.08;73.59;103066.84;2578853;55;20169;-74
2021/06/03 04:13:03;;;;;;;5.75;1.50;;;;;;;15.20;73.32;103070.66;2578772;55;20131;-74
2021/06/03 04:15:33;;;;;;;2.78;1.92;;;;;;;15.39;70.62;103064.22;2579340;55;20135;-74
2021/06/03 04:18:00;;;;;;;3.30;2.15;;;;;;;15.40;70.05;103063.25;2578460;55;20542;-74
2021/06/03 04:20:28;;;;;;;3.15;2.20;;;;;;;15.46;70.25;103051.28;2578970;55;20105;-75
2021/06/03 04:22:56;;;;;;;2.50;2.17;;;;;;;15.50;68.73;103053.69;2578816;55;20191;-74
2021/06/03 04:25:25;;;;;;;3.72;2.15;;;;;;;15.56;69.54;103060.53;2578794;55;20121;-75
2021/06/03 04:27:53;;;;;;;4.80;2.58;;;;;;;15.74;70.37;103060.41;2578767;55;20156;-74
2021/06/03 04:30:25;;;;;;;7.40;2.50;;;;;;;15.87;68.98;103047.91;2579137;55;20124;-75
2021/06/03 04:32:53;;;;;;;2.65;2.20;;;;;;;16.09;67.91;103054.69;2578837;55;20131;-75
2021/06/03 04:35:25;;;;;;;3.78;2.40;;;;;;;16.09;68.05;103052.88;2578532;55;20552;-74
2021/06/03 04:37:53;;;;;;;4.30;2.70;;;;;;;16.11;66.49;103053.66;2578426;55;20105;-75
2021/06/03 04:40:24;;;;;;;3.03;2.35;;;;;;;16.38;65.40;103050.19;2578814;55;20496;-75
2021/06/03 04:42:51;;;;;;;3.83;2.37;;;;;;;16.46;64.01;103054.22;2578771;55;20113;-75
2021/06/03 04:45:22;;;;;;;4.78;2.45;;;;;;;16.49;64.95;103068.34;2578715;55;20124;-75
2021/06/03 04:47:50;;;;;;;6.07;2.72;;;;;;;16.48;63.09;103074.72;2578684;55;20121;-75
2021/06/03 04:50:20;;;;;;;4.97;2.30;;;;;;;16.59;63.95;103067.78;2578989;55;20132;-75
2021/06/03 04:52:48;;;;;;;3.95;2.55;;;;;;;16.61;62.65;103069.41;2578500;55;20116;-74
2021/06/03 04:55:20;;;;;;;4.97;2.63;;;;;;;16.61;62.82;103055.94;2578729;55;20535;-74
2021/06/03 04:57:48;;;;;;;5.20;2.17;;;;;;;16.59;62.51;103052.50;2578657;55;20233;-74
2021/06/03 05:00:18;;;;;;;4.18;2.50;;;;;;;16.80;63.71;103061.00;2578722;55;20619;-75
2021/06/03 05:02:48;;;;;;;7.25;2.67;;;;;;;17.04;62.91;103073.00;2578614;55;20128;-74
2021/06/03 05:05:16;;;;;;;2.87;2.20;;;;;;;17.03;62.28;103076.69;2578810;55;20576;-74
2021/06/03 05:07:44;;;;;;;4.60;2.75;;;;;;;17.09;60.83;103065.50;2578538;55;20136;-75
2021/06/03 05:10:12;;;;;;;2.92;2.20;;;;;;;17.09;60.87;103055.56;2578653;55;20162;-75
2021/06/03 05:12:40;;;;;;;6.00;2.50;;;;;;;17.19;59.86;103065.75;2578612;55;20140;-75
2021/06/03 05:15:09;;;;;;;12.82;2.62;;;;;;;16.83;63.36;103060.81;2578718;55;20102;-74
2021/06/03 05:17:37;;;;;;;7.18;3.05;;;;;;;16.69;64.68;103060.84;2578603;55;20121;-74
2021/06/03 05:20:09;;;;;;;5.35;2.80;;;;;;;16.64;62.91;103057.59;2578585;55;20121;-74
2021/06/03 05:22:37;;;;;;;5.37;2.47;;;;;;;16.62;62.02;103062.19;2578539;55;20117;-75
2021/06/03 05:25:06;;;;;;;3.40;2.17;;;;;;;16.72;64.50;103066.00;2578612;55;20109;-75
2021/06/03 05:27:34;;;;;;;3.50;2.40;;;;;;;16.86;64.93;103067.81;2576722;55;20119;-74
2021/06/03 05:30:04;;;;;;;4.50;2.60;;;;;;;17.07;66.03;103067.41;2578460;55;20119;-74
2021/06/03 05:32:31;;;;;;;2.42;2.05;;;;;;;17.49;61.59;103057.44;2578402;55;20125;-74
2021/06/03 05:34:59;;;;;;;2.42;2.22;;;;;;;17.49;61.04;103064.66;2578495;55;20118;-75
2021/06/03 05:37:27;;;;;;;2.90;2.47;;;;;;;17.34;63.50;103075.53;2578499;55;20113;-74
2021/06/03 05:39:55;;;;;;;5.03;2.45;;;;;;;17.22;62.86;103076.31;2578479;55;20496;-75
2021/06/03 05:42:22;;;;;;;3.78;2.15;;;;;;;17.08;63.96;103070.03;2578470;55;20116;-73
2021/06/03 05:44:50;;;;;;;5.03;2.53;;;;;;;16.99;63.93;103073.28;2578510;55;20508;-73
2021/06/03 05:47:18;;;;;;;6.57;2.78;;;;;;;16.97;65.19;103077.91;2578559;55;20632;-73
2021/06/03 05:49:46;;;;;;;6.37;2.62;;;;;;;17.03;62.77;103065.91;2578450;55;20295;-74
2021/06/03 05:52:14;;;;;;;5.15;2.58;;;;;;;17.15;63.09;103077.72;2578444;55;20117;-73
2021/06/03 05:54:43;;;;;;;3.78;2.08;;;;;;;17.32;61.93;103077.44;2578521;55;20531;-70
2021/06/03 05:57:10;;;;;;;5.95;2.25;;;;;;;17.51;59.53;103068.97;2578454;55;20136;-75
2021/06/03 05:59:38;;;;;;;3.25;1.85;;;;;;;17.72;56.25;103073.00;2573424;55;20591;-74
2021/06/03 06:02:07;;;;;;;5.32;3.00;;;;;;;17.91;57.04;103073.47;2578604;55;20117;-73
2021/06/03 06:07:19;;;;;;;3.67;2.15;;;;;;;18.07;55.86;103067.88;2578281;55;20135;-74
2021/06/03 06:09:49;;;;;;;3.72;2.55;;;;;;;18.32;60.46;103066.16;2578495;55;20131;-75
2021/06/03 06:12:16;;;;;;;3.72;2.42;;;;;;;18.50;58.61;103068.53;2578346;55;20129;-74
2021/06/03 06:14:43;;;;;;;4.28;2.40;;;;;;;18.38;59.63;103070.25;2578498;55;20709;-75
2021/06/03 06:17:11;;;;;;;2.55;2.25;;;;;;;18.41;60.34;103064.63;2578479;55;20110;-73
2021/06/03 06:19:39;;;;;;;4.15;2.12;;;;;;;18.43;57.15;103068.06;2573246;55;20128;-74
2021/06/03 06:22:07;;;;;;;2.92;1.90;;;;;;;18.35;56.04;103056.97;2578405;55;20122;-74
2021/06/03 06:24:34;;;;;;;2.97;1.98;;;;;;;18.30;57.03;103064.53;2577016;55;20117;-74
2021/06/03 06:27:04;;;;;;;5.82;2.00;;;;;;;18.19;55.12;103055.34;2576233;55;20117;-74
2021/06/03 06:29:31;;;;;;;4.25;2.40;;;;;;;18.22;57.44;103060.53;2576639;55;20139;-74
2021/06/03 06:31:59;;;;;;;5.25;2.47;;;;;;;18.31;60.30;103064.44;2575727;55;20186;-74
2021/06/03 06:34:26;;;;;;;4.75;2.33;;;;;;;18.56;59.86;103068.06;2576449;55;20126;-74
2021/06/03 06:36:54;;;;;;;6.22;2.25;;;;;;;18.92;57.77;103062.75;2576482;55;20117;-74
2021/06/03 06:39:21;;;;;;;5.70;2.10;;;;;;;19.15;54.97;103065.66;2577226;55;20138;-74
2021/06/03 06:41:49;;;;;;;4.78;2.00;;;;;;;19.08;54.56;103067.09;2578776;55;20105;-74
2021/06/03 06:44:18;;;;;;;6.40;1.98;;;;;;;19.10;51.60;103066.00;2578489;55;20113;-74
2021/06/03 06:46:45;;;;;;;4.18;1.70;;;;;;;18.92;50.08;103065.47;2578388;55;20646;-74
2021/06/03 06:49:13;;;;;;;3.17;1.50;;;;;;;18.97;53.29;103068.72;2578610;55;20477;-73
2021/06/03 06:51:40;;;;;;;1.80;1.65;;;;;;;19.13;53.24;103070.28;2578381;55;20133;-74
2021/06/03 06:54:08;;;;;;;6.20;2.33;;;;;;;19.10;55.45;103066.00;2578205;55;20131;-74
2021/06/03 06:56:35;;;;;;;6.03;2.20;;;;;;;19.27;56.19;103072.84;2573060;55;20135;-74
2021/06/03 06:59:02;;;;;;;4.55;2.28;;;;;;;19.44;56.02;103074.25;2573232;55;20120;-75
2021/06/03 07:01:31;;;;;;;2.87;1.80;;;;;;;19.51;53.11;103063.81;2578831;55;20117;-74
2021/06/03 07:03:59;;;;;;;3.08;2.10;;;;;;;19.35;51.59;103068.69;2573259;55;20117;-74
2021/06/03 07:06:27;;;;;;;2.55;2.03;;;;;;;19.39;52.48;103062.94;2578311;55;20127;-74
2021/06/03 07:08:54;;;;;;;4.53;2.00;;;;;;;19.28;49.25;103068.28;2578419;55;20097;-74
2021/06/03 07:11:24;;;;;;;4.03;1.90;;;;;;;19.27;52.11;103070.13;2578438;55;20507;-75
2021/06/03 07:13:51;;;;;;;5.95;2.20;;;;;;;19.47;54.11;103073.16;2578746;55;20131;-74
2021/06/03 07:16:19;;;;;;;5.68;2.30;;;;;;;19.51;54.23;103063.81;2578678;55;20112;-74
2021/06/03 07:18:48;;;;;;;5.07;2.20;;;;;;;19.46;56.78;103071.44;2578174;55;20167;-74
2021/06/03 07:21:15;;;;;;;3.08;2.03;;;;;;;19.45;53.00;103064.31;2578290;55;20170;-74
2021/06/03 07:23:43;;;;;;;4.35;1.73;;;;;;;19.33;52.54;103072.34;2578224;55;20653;-75
2021/06/03 07:26:10;;;;;;;3.87;2.00;;;;;;;19.46;51.40;103063.31;2578709;55;20117;-75
2021/06/03 07:28:38;;;;;;;5.87;2.10;;;;;;;19.67;53.49;103062.66;2578267;55;20109;-75
2021/06/03 07:31:05;;;;;;;4.28;1.73;;;;;;;19.59;49.44;103066.81;2578279;55;20178;-74
2021/06/03 07:33:33;;;;;;;2.15;1.60;;;;;;;19.60;51.25;103052.28;2578197;55;20135;-74
2021/06/03 07:36:01;;;;;;;1.60;1.50;;;;;;;19.68;50.96;103048.13;2573319;55;20109;-75
2021/06/03 07:38:29;;;;;;;2.67;1.77;;;;;;;19.76;50.81;103051.09;2578074;55;20135;-74
2021/06/03 07:40:56;;;;;;;3.40;1.62;;;;;;;19.77;51.28;103050.13;2578232;55;20157;-75
2021/06/03 07:43:24;;;;;;;3.65;2.15;;;;;;;19.78;52.55;103056.38;2578278;55;20117;-74
2021/06/03 07:45:51;;;;;;;4.68;1.77;;;;;;;19.85;51.65;103049.50;2578203;55;20106;-75
2021/06/03 07:48:20;;;;;;;7.53;1.83;;;;;;;20.34;51.66;103046.63;2578228;55;20133;-75
2021/06/03 07:50:47;;;;;;;5.75;1.62;;;;;;;20.70;54.33;103050.06;2578303;55;20124;-74
2021/06/03 07:53:16;;;;;;;4.18;1.75;;;;;;;21.10;52.90;103052.19;2578043;55;20125;-74
2021/06/03 07:55:43;;;;;;;4.03;1.80;;;;;;;21.18;47.03;103046.13;2578299;55;20671;-75
2021/06/03 07:58:13;;;;;;;2.33;1.60;;;;;;;21.01;49.63;103046.66;2578149;55;20118;-75
2021/06/03 08:00:43;;;;;;;3.47;1.50;;;;;;;21.12;48.11;103046.63;2573219;55;20118;-75
2021/06/03 08:03:12;;;;;;;4.10;1.70;;;;;;;21.25;49.58;103058.19;2578111;55;20116;-75
2021/06/03 08:05:39;;;;;;;3.33;2.42;;;;;;;21.46;47.12;103056.47;2578058;55;20109;-75
2021/06/03 08:08:07;;;;;;;3.97;1.60;;;;;;;21.68;48.82;103039.22;2578244;55;20117;-75
2021/06/03 08:10:39;;;;;;;1.80;1.70;;;;;;;21.75;49.04;103043.16;2578949;55;20540;-74
2021/06/03 08:13:08;;;;;;;2.87;1.60;;;;;;;21.93;48.02;103032.50;2578887;55;20127;-74
2021/06/03 08:15:37;;;;;;;2.30;1.55;;;;;;;21.99;44.94;103039.25;2578957;55;20592;-74
2021/06/03 08:18:05;;;;;;;1.58;1.40;;;;;;;22.16;45.97;103032.31;2578908;55;20109;-75
2021/06/03 08:20:36;;;;;;;3.55;1.20;;;;;;;22.31;43.44;103045.56;2578907;55;20153;-74
2021/06/03 08:23:05;;;;;;;1.37;1.10;;;;;;;22.10;45.75;103033.72;2578907;55;20120;-75
2021/06/03 08:25:33;;;;;;;2.35;1.45;;;;;;;22.18;44.85;103024.03;2579016;55;20121;-74
2021/06/03 08:28:02;;;;;;;4.22;1.40;;;;;;;22.33;45.70;103036.25;2578973;55;20173;-75
2021/06/03 08:30:30;;;;;;;2.47;1.58;;;;;;;22.46;44.25;103027.00;2573997;55;20139;-74
2021/06/03 08:32:57;;;;;;;3.30;1.75;;;;;;;22.64;44.16;103036.22;2578816;55;20121;-75
2021/06/03 08:35:25;;;;;;;6.57;1.75;;;;;;;22.54;44.22;103026.34;2578894;55;20168;-75
2021/06/03 08:37:56;;;;;;;2.85;1.30;;;;;;;22.50;42.20;103023.91;2578743;55;20157;-74
2021/06/03 08:40:26;;;;;;;2.42;1.10;;;;;;;22.55;43.70;103036.22;2578982;55;20121;-75
2021/06/03 08:42:55;;;;;;;1.50;1.35;;;;;;;22.60;42.48;103026.63;2578805;55;20125;-75
2021/06/03 08:45:25;;;;;;;1.98;1.30;;;;;;;22.42;43.23;103031.84;2578841;55;20131;-74
2021/06/03 08:47:54;;;;;;;4.10;1.48;;;;;;;22.29;45.14;103015.78;2578832;55;20110;-74
2021/06/03 08:50:22;;;;;;;2.03;1.35;;;;;;;22.49;44.28;103015.88;2578889;55;20116;-74
2021/06/03 08:52:52;;;;;;;1.37;1.10;;;;;;;22.70;43.93;103006.75;2578839;55;20113;-75
2021/06/03 08:58:03;;;;;;;2.10;1.48;;;;;;;22.74;40.32;103000.00;2578522;55;20108;-75
2021/06/03 09:00:34;;;;;;;1.42;1.25;;;;;;;22.78;41.02;103005.03;2578922;55;20131;-74
2021/06/03 09:03:03;;;;;;;3.28;1.50;;;;;;;22.83;42.33;103006.50;2578782;55;20105;-75
2021/06/03 09:05:31;;;;;;;2.00;1.10;;;;;;;22.60;40.40;102996.72;2578855;55;20131;-75
2021/06/03 09:08:14;;;;;;;1.90;1.40;;;;;;;22.64;43.38;103002.75;2578829;55;20119;-74
2021/06/03 09:10:43;;;;;;;1.73;1.37;;;;;;;22.45;41.77;103004.38;2579169;55;20244;-74
2021/06/03 09:13:19;;;;;;;2.50;1.50;;;;;;;22.33;40.47;102995.47;2578774;55;20112;-74
2021/06/03 09:15:51;;;;;;;2.05;1.30;;;;;;;22.21;42.31;102988.41;2578758;55;20109;-75
2021/06/03 09:18:36;;;;;;;2.10;1.30;;;;;;;22.30;42.67;102968.56;2578670;55;20132;-75
2021/06/03 09:21:09;;;;;;;1.67;1.12;;;;;;;22.69;41.05;102999.59;2578614;55;20117;-74
2021/06/03 09:23:38;;;;;;;1.80;1.48;;;;;;;22.59;39.02;102989.56;2578886;55;20113;-75
2021/06/03 09:26:08;;;;;;;1.25;1.00;;;;;;;22.64;38.09;102997.28;2578821;55;20627;-75
2021/06/03 09:28:37;;;;;;;3.08;1.20;;;;;;;22.59;39.97;102988.69;2578611;55;20117;-74
2021/06/03 09:31:10;;;;;;;1.30;1.00;;;;;;;22.66;39.07;102989.84;2579073;55;20973;-74
2021/06/03 09:33:43;;;;;;;3.25;1.15;;;;;;;22.74;39.44;102989.13;2578665;55;20304;-74
2021/06/03 09:36:12;;;;;;;3.92;1.50;;;;;;;22.64;38.01;102987.25;2573764;55;20128;-75
2021/06/03 09:39:12;;;;;;;1.58;1.48;;;;;;;22.84;41.10;102981.84;2578467;55;20179;-74
2021/06/03 09:41:41;;;;;;;2.92;1.45;;;;;;;22.94;41.62;102979.13;2564054;55;20138;-75
2021/06/03 09:44:13;;;;;;;3.30;1.30;;;;;;;23.06;40.73;102968.97;2578606;55;20516;-75
2021/06/03 09:46:45;;;;;;;2.05;1.25;;;;;;;23.13;37.69;102964.66;2578772;55;20176;-75
2021/06/03 09:49:21;;;;;;;2.67;1.50;;;;;;;23.42;37.59;102974.66;2578910;55;20121;-75
2021/06/03 09:51:51;;;;;;;8.60;1.83;;;;;;;23.56;40.44;102975.22;2578641;55;20135;-75
2021/06/03 09:54:21;;;;;;;6.05;1.87;;;;;;;23.63;38.50;102969.03;2578837;55;20105;-75
2021/06/03 09:56:51;;;;;;;1.90;1.65;;;;;;;23.63;36.88;102963.59;2578556;55;20117;-74
2021/06/03 09:59:30;;;;;;;1.60;1.23;;;;;;;23.28;40.83;102962.37;2578575;55;20114;-74
2021/06/03 10:02:04;;;;;;;2.45;1.40;;;;;;;23.26;39.00;102958.06;2578652;55;20624;-74
2021/06/03 10:04:38;;;;;;;8.05;1.55;;;;;;;23.32;40.11;102952.91;2578679;55;20161;-74
2021/06/03 10:07:19;;;;;;;6.55;1.40;;;;;;;23.37;38.81;102952.47;2578776;55;20121;-75
2021/06/03 10:10:07;;;;;;;3.47;2.03;;;;;;;23.52;40.40;102957.44;2578931;55;20101;-74
2021/06/03 10:12:43;;;;;;;1.58;1.27;;;;;;;23.46;39.70;102957.03;2578564;55;20128;-74
2021/06/03 10:15:45;;;;;;;2.10;1.17;;;;;;;23.89;37.76;102948.44;2578568;55;20660;-74
2021/06/03 10:18:18;;;;;;;2.85;1.35;;;;;;;23.75;37.92;102944.31;2578530;55;20120;-74
2021/06/03 10:20:48;;;;;;;4.85;1.27;;;;;;;23.49;36.56;102948.56;2578718;55;20131;-74
2021/06/03 10:23:18;;;;;;;2.33;1.62;;;;;;;23.45;37.15;102947.16;2578564;55;20117;-75
2021/06/03 10:25:47;;;;;;;2.43;1.47;;;;;;;23.59;39.90;102934.06;2578590;55;20127;-75
2021/06/03 10:28:19;;;;;;;4.45;1.30;;;;;;;23.63;39.53;102936.34;2578455;55;20798;-74
2021/06/03 10:30:48;;;;;;;3.05;1.20;;;;;;;23.59;36.83;102936.78;2578873;55;20105;-75
2021/06/03 10:33:19;;;;;;;3.75;1.55;;;;;;;23.86;37.59;102937.84;2578111;55;20125;-75
2021/06/03 10:35:52;;;;;;;5.82;1.37;;;;;;;23.52;36.71;102919.31;2578680;55;20120;-75
2021/06/03 10:38:21;;;;;;;2.95;1.33;;;;;;;23.71;39.93;102919.25;2578445;55;20110;-74
2021/06/03 10:40:52;;;;;;;2.03;1.33;;;;;;;23.77;38.13;102913.19;2573562;55;20615;-74
2021/06/03 10:43:20;;;;;;;4.15;1.30;;;;;;;23.80;33.82;102922.06;2578426;55;20117;-74
2021/06/03 10:45:48;;;;;;;3.67;1.65;;;;;;;23.75;35.74;102909.78;2578628;55;20508;-74
2021/06/03 10:48:17;;;;;;;2.03;1.37;;;;;;;23.79;36.09;102909.47;2578428;55;20128;-74
2021/06/03 10:50:49;;;;;;;1.67;1.55;;;;;;;23.31;35.48;102895.88;2578419;55;20123;-74
2021/06/03 10:53:18;;;;;;;3.47;1.83;;;;;;;23.48;35.72;102905.13;2578552;55;20567;-74
2021/06/03 10:55:48;;;;;;;3.53;1.60;;;;;;;23.76;35.63;102900.59;2573354;55;20140;-74
2021/06/03 10:58:18;;;;;;;3.83;1.50;;;;;;;24.03;34.39;102896.12;2578375;55;20105;-74
2021/06/03 11:00:58;;;;;;;4.00;1.35;;;;;;;24.19;35.01;102900.09;2578425;55;20213;-74
2021/06/03 11:03:38;;;;;;;2.37;1.27;;;;;;;24.28;33.31;102893.72;2578358;55;20105;-74
2021/06/03 11:06:09;;;;;;;2.05;1.42;;;;;;;24.08;38.31;102903.88;2578692;55;20113;-74
2021/06/03 11:08:40;;;;;;;5.15;1.48;;;;;;;23.99;35.95;102883.81;2578485;55;20117;-75
2021/06/03 11:11:27;;;;;;;;;;;;;;;24.39;34.46;102889.03;2578680;55;20291;-74
2021/06/03 11:14:07;;;;;;;4.55;1.95;;;;;;;24.39;33.97;102887.16;2578426;55;20007;-74
2021/06/03 11:16:46;;;;;;;1.70;1.10;;;;;;;24.17;33.91;102874.84;2578600;55;20123;-74
2021/06/03 11:19:15;;;;;;;2.78;1.17;;;;;;;23.92;32.88;102874.53;2578459;55;20631;-74
2021/06/03 11:22:06;;;;;;;2.62;1.40;;;;;;;24.24;32.77;102875.94;2578262;55;20123;-74
2021/06/03 11:25:03;;;;;;;4.53;1.48;;;;;;;24.03;34.49;102863.41;2578411;55;20240;-74
2021/06/03 11:27:36;;;;;;;2.30;1.20;;;;;;;24.15;33.96;102858.62;2578125;55;20124;-74
2021/06/03 11:30:13;;;;;;;3.53;1.20;;;;;;;24.47;35.59;102864.56;2578493;55;20123;-74
2021/06/03 11:32:51;;;;;;;4.50;1.12;;;;;;;24.52;34.48;102861.38;2578255;55;20520;-74
2021/06/03 11:35:29;;;;;;;1.50;0.95;;;;;;;24.67;32.45;102853.50;2578534;55;20124;-74
2021/06/03 11:37:57;;;;;;;3.50;1.48;;;;;;;24.31;32.25;102855.22;2578416;55;20135;-74
2021/06/03 11:40:26;;;;;;;3.05;1.33;;;;;;;24.01;33.11;102843.63;2578030;55;20113;-74
2021/06/03 11:43:10;;;;;;;5.70;1.30;;;;;;;24.23;34.00;102852.41;2578426;55;20176;-75
2021/06/03 11:45:44;;;;;;;3.30;1.60;;;;;;;24.20;32.03;102847.28;2579323;55;20124;-74